Time;durP1;ratioP1;P1;durP2;ratioP2;P2;SDS_P1;SDS_P2;PMS_P1;PMS_P2;Temp;Humidity;BMP_temperature;BMP_pressure;BME280_temperature;BME280_humidity;BME280_pressure;Samples;Min_cycle;Max_cycle;Signal;HPM_P1;HPM_P2
2021/11/10 00:00:41;;;;;;;;;;;;;;;;;;2100416;28;1187;-90
2021/11/10 00:01:43;;;;;;;;;;;;;;;;;;2099580;28;1288;-90
2021/11/10 00:02:44;;;;;;;;;;;;;;;;;;2100004;28;1419;-90
2021/11/10 00:03:46;;;;;;;;;;;;;;;;;;2101393;28;1531;-91
2021/11/10 00:04:47;;;;;;;;;;;;;;;;;;2106088;28;1314;-91
2021/11/10 00:05:52;;;;;;;;;;;;;;;;;;2100042;28;1406;-91
2021/11/10 00:06:53;;;;;;;;;;;;;;;;;;2092139;28;1219;-92
2021/11/10 00:07:56;;;;;;;;;;;;;;;;;;2091866;28;1479;-91
2021/11/10 00:09:01;;;;;;;;;;;;;;;;;;2099686;28;1230;-93
2021/11/10 00:10:03;;;;;;;;;;;;;;;;;;2099955;28;1202;-91
2021/11/10 00:11:04;;;;;;;;;;;;;;;;;;2102513;28;1255;-92
2021/11/10 00:12:07;;;;;;;;;;;;;;;;;;2107504;28;1345;-92
2021/11/10 00:13:21;;;;;;;;;;;;;;;;;;2116970;28;878;-91
2021/11/10 00:14:24;;;;;;;;;;;;;;;;;;2125826;27;1139;-91
2021/11/10 00:15:26;;;;;;;;;;;;;;;;;;2116338;28;1295;-92
2021/11/10 00:16:27;;;;;;;;;;;;;;;;;;2106445;28;1677;-91
2021/11/10 00:17:30;;;;;;;;;;;;;;;;;;2116231;28;1201;-91
2021/11/10 00:18:30;;;;;;;;;;;;;;;;;;2116328;28;1187;-90
2021/11/10 00:19:33;;;;;;;;;;;;;;;;;;2105034;28;1911;-90
2021/11/10 00:20:35;;;;;;;;;;;;;;;;;;2116164;27;1421;-90
2021/11/10 00:21:45;;;;;;;;;;;;;;;;;;2115920;28;1215;-90
2021/11/10 00:22:47;;;;;;;;;;;;;;;;;;2100810;28;1007;-91
2021/11/10 00:23:49;;;;;;;;;;;;;;;;;;2099795;28;1289;-90
2021/11/10 00:24:51;;;;;;;;;;;;;;;;;;2099487;28;1239;-90
2021/11/10 00:25:54;;;;;;;;;;;;;;;;;;2108071;28;1511;-90
2021/11/10 00:26:55;;;;;;;;;;;;;;;;;;2107730;28;1382;-90
2021/11/10 00:28:01;;;;;;;;;;;;;;;;;;2110350;28;1508;-91
2021/11/10 00:29:02;;;;;;;;;;;;;;;;;;2107811;28;1302;-90
2021/11/10 00:30:05;;;;;;;;;;;;;;;;;;2108340;28;1257;-90
2021/11/10 00:31:09;;;;;;;;;;;;;;;;;;2108853;28;788;-90
2021/11/10 00:32:12;;;;;;;;;;;;;;;;;;2108827;28;1288;-90
2021/11/10 00:33:13;;;;;;;;;;;;;;;;;;2116116;28;1295;-90
2021/11/10 00:34:15;;;;;;;;;;;;;;;;;;2116474;28;1255;-91
2021/11/10 00:35:16;;;;;;;;;;;;;;;;;;2099540;28;1316;-91
2021/11/10 00:36:19;;;;;;;;;;;;;;;;;;2099901;28;1232;-90
2021/11/10 00:37:21;;;;;;;;;;;;;;;;;;2116347;28;1134;-91
2021/11/10 00:38:24;;;;;;;;;;;;;;;;;;2116352;28;1250;-91
2021/11/10 00:39:25;;;;;;;;;;;;;;;;;;2116708;28;1014;-90
2021/11/10 00:40:29;;;;;;;;;;;;;;;;;;2115835;28;1898;-91
2021/11/10 00:41:32;;;;;;;;;;;;;;;;;;2099642;28;1239;-88
2021/11/10 00:42:34;;;;;;;;;;;;;;;;;;2091778;28;1300;-89
2021/11/10 00:43:35;;;;;;;;;;;;;;;;;;2099228;28;1369;-89
2021/11/10 00:44:37;;;;;;;;;;;;;;;;;;2099854;28;1403;-89
2021/11/10 00:45:39;;;;;;;;;;;;;;;;;;2099760;28;1441;-89
2021/11/10 00:46:42;;;;;;;;;;;;;;;;;;2108461;28;922;-89
2021/11/10 00:47:43;;;;;;;;;;;;;;;;;;2107635;28;1211;-89
2021/11/10 00:48:47;;;;;;;;;;;;;;;;;;2108031;28;1107;-89
2021/11/10 00:49:48;;;;;;;;;;;;;;;;;;2107713;28;1031;-89
2021/11/10 00:50:50;;;;;;;;;;;;;;;;;;2099136;28;1369;-89
2021/11/10 00:51:51;;;;;;;;;;;;;;;;;;2091745;28;1557;-89
2021/11/10 00:52:54;;;;;;;;;;;;;;;;;;2099130;28;1421;-89
2021/11/10 00:53:56;;;;;;;;;;;;;;;;;;2108227;28;1310;-89
2021/11/10 00:54:58;;;;;;;;;;;;;;;;;;2107915;28;1226;-89
2021/11/10 00:56:01;;;;;;;;;;;;;;;;;;2108157;28;1326;-90
2021/11/10 00:57:05;;;;;;;;;;;;;;;;;;2108028;28;1615;-90
2021/11/10 00:58:08;;;;;;;;;;;;;;;;;;2115796;28;1812;-89
2021/11/10 00:59:08;;;;;;;;;;;;;;;;;;2116672;28;807;-89
2021/11/10 01:00:11;;;;;;;;;;;;;;;;;;2107578;28;1967;-89
2021/11/10 01:01:13;;;;;;;;;;;;;;;;;;2107992;28;1276;-89
2021/11/10 01:02:18;;;;;;;;;;;;;;;;;;2108309;28;874;-90
2021/11/10 01:03:23;;;;;;;;;;;;;;;;;;2099492;28;901;-89
2021/11/10 01:04:24;;;;;;;;;;;;;;;;;;2099713;28;1286;-89
2021/11/10 01:05:28;;;;;;;;;;;;;;;;;;2099110;28;1283;-90
2021/11/10 01:06:32;;;;;;;;;;;;;;;;;;2107345;28;1207;-89
2021/11/10 01:07:34;;;;;;;;;;;;;;;;;;2115748;28;1368;-90
2021/11/10 01:08:36;;;;;;;;;;;;;;;;;;2107074;28;1230;-89
2021/11/10 01:09:40;;;;;;;;;;;;;;;;;;2107572;28;1197;-90
2021/11/10 01:10:42;;;;;;;;;;;;;;;;;;2108092;28;1219;-89
2021/11/10 01:11:47;;;;;;;;;;;;;;;;;;2099357;28;2080;-90
2021/11/10 01:12:48;;;;;;;;;;;;;;;;;;2099303;28;1312;-89
2021/11/10 01:13:50;;;;;;;;;;;;;;;;;;2090973;28;1349;-89
2021/11/10 01:14:51;;;;;;;;;;;;;;;;;;2091225;28;1025;-90
2021/11/10 01:15:53;;;;;;;;;;;;;;;;;;2100371;28;1390;-90
2021/11/10 01:16:54;;;;;;;;;;;;;;;;;;2107722;28;1162;-89
2021/11/10 01:18:01;;;;;;;;;;;;;;;;;;2116463;28;1168;-90
2021/11/10 01:19:02;;;;;;;;;;;;;;;;;;2108228;28;1219;-90
2021/11/10 01:20:08;;;;;;;;;;;;;;;;;;2108200;28;1906;-89
2021/11/10 01:21:09;;;;;;;;;;;;;;;;;;2096191;28;1957;-89
2021/11/10 01:22:12;;;;;;;;;;;;;;;;;;2091002;28;1391;-89
2021/11/10 01:23:14;;;;;;;;;;;;;;;;;;2099068;28;1408;-89
2021/11/10 01:24:16;;;;;;;;;;;;;;;;;;2108050;28;834;-89
2021/11/10 01:25:20;;;;;;;;;;;;;;;;;;2116694;28;1207;-90
2021/11/10 01:26:21;;;;;;;;;;;;;;;;;;2099353;28;1339;-90
2021/11/10 01:27:29;;;;;;;;;;;;;;;;;;2090809;28;1231;-90
2021/11/10 01:28:30;;;;;;;;;;;;;;;;;;2109232;28;1170;-90
2021/11/10 01:29:33;;;;;;;;;;;;;;;;;;2107680;28;1230;-89
2021/11/10 01:30:35;;;;;;;;;;;;;;;;;;2099576;28;1448;-90
2021/11/10 01:31:41;;;;;;;;;;;;;;;;;;2099054;28;2080;-91
2021/11/10 01:32:45;;;;;;;;;;;;;;;;;;2099982;28;2014;-92
2021/11/10 01:33:48;;;;;;;;;;;;;;;;;;2099706;28;1402;-90
2021/11/10 01:34:49;;;;;;;;;;;;;;;;;;2091211;28;1442;-90
2021/11/10 01:35:53;;;;;;;;;;;;;;;;;;2099160;28;1520;-91
2021/11/10 01:36:57;;;;;;;;;;;;;;;;;;2092085;28;1169;-91
2021/11/10 01:38:00;;;;;;;;;;;;;;;;;;2100521;28;1216;-91
2021/11/10 01:39:05;;;;;;;;;;;;;;;;;;2115849;28;1181;-91
2021/11/10 01:40:12;;;;;;;;;;;;;;;;;;2099200;28;1917;-91
2021/11/10 01:41:15;;;;;;;;;;;;;;;;;;2095268;28;1390;-90
2021/11/10 01:42:25;;;;;;;;;;;;;;;;;;2100203;28;1329;-91
2021/11/10 01:43:29;;;;;;;;;;;;;;;;;;2105414;28;1457;-92
2021/11/10 01:44:34;;;;;;;;;;;;;;;;;;2099922;28;1731;-91
2021/11/10 01:45:36;;;;;;;;;;;;;;;;;;2099737;28;1230;-91
2021/11/10 01:46:38;;;;;;;;;;;;;;;;;;2106833;28;1223;-91
2021/11/10 01:47:45;;;;;;;;;;;;;;;;;;2107075;28;2047;-91
2021/11/10 01:48:45;;;;;;;;;;;;;;;;;;2108130;28;1258;-91
2021/11/10 01:49:48;;;;;;;;;;;;;;;;;;2106924;28;1306;-91
2021/11/10 01:50:51;;;;;;;;;;;;;;;;;;2099846;28;1284;-90
2021/11/10 01:53:12;;;;;;;;;;;;;;;;;;2101419;28;1439;-90
2021/11/10 01:54:14;;;;;;;;;;;;;;;;;;2091417;28;1222;-90
2021/11/10 01:55:18;;;;;;;;;;;;;;;;;;2091417;28;1558;-89
2021/11/10 01:56:23;;;;;;;;;;;;;;;;;;2100216;28;2026;-89
2021/11/10 01:57:26;;;;;;;;;;;;;;;;;;2099117;28;1542;-90
2021/11/10 01:58:29;;;;;;;;;;;;;;;;;;2099548;28;1338;-89
2021/11/10 01:59:33;;;;;;;;;;;;;;;;;;2091661;28;1486;-89
2021/11/10 02:00:36;;;;;;;;;;;;;;;;;;2091459;28;1906;-89
2021/11/10 02:01:45;;;;;;;;;;;;;;;;;;2107149;28;1322;-89
2021/11/10 02:02:48;;;;;;;;;;;;;;;;;;2100241;28;1146;-90
2021/11/10 02:04:04;;;;;;;;;;;;;;;;;;2110388;28;998;-89
2021/11/10 02:05:06;;;;;;;;;;;;;;;;;;2100952;28;1655;-89
2021/11/10 02:06:11;;;;;;;;;;;;;;;;;;2104833;28;945;-89
2021/11/10 02:07:13;;;;;;;;;;;;;;;;;;2118351;27;903;-89
2021/11/10 02:08:16;;;;;;;;;;;;;;;;;;2112303;28;2172;-89
2021/11/10 02:09:21;;;;;;;;;;;;;;;;;;2101468;28;1294;-89
2021/11/10 02:10:29;;;;;;;;;;;;;;;;;;2101207;28;1354;-89
2021/11/10 02:11:31;;;;;;;;;;;;;;;;;;2106705;28;1918;-89
2021/11/10 02:24:56;;;;;;;;;;;;;;;;;;2092415;28;977;-89
2021/11/10 02:26:00;;;;;;;;;;;;;;;;;;2111055;28;1516;-89
2021/11/10 02:27:02;;;;;;;;;;;;;;;;;;2101226;28;1234;-90
2021/11/10 02:28:05;;;;;;;;;;;;;;;;;;2097272;28;1291;-90
2021/11/10 02:29:06;;;;;;;;;;;;;;;;;;2100903;28;1384;-89
2021/11/10 02:30:16;;;;;;;;;;;;;;;;;;2100919;28;1561;-90
2021/11/10 02:31:16;;;;;;;;;;;;;;;;;;2101142;28;1313;-88
2021/11/10 02:32:20;;;;;;;;;;;;;;;;;;2109581;28;1107;-89
2021/11/10 02:33:30;;;;;;;;;;;;;;;;;;2100408;28;1276;-89
2021/11/10 02:34:38;;;;;;;;;;;;;;;;;;2095466;28;1388;-89
2021/11/10 02:35:40;;;;;;;;;;;;;;;;;;2102541;28;1591;-89
2021/11/10 02:36:44;;;;;;;;;;;;;;;;;;2100396;28;1211;-89
2021/11/10 02:37:47;;;;;;;;;;;;;;;;;;2100165;28;1520;-88
2021/11/10 02:38:51;;;;;;;;;;;;;;;;;;2100948;28;1276;-88
2021/11/10 02:39:54;;;;;;;;;;;;;;;;;;2100795;28;965;-88
2021/11/10 02:40:59;;;;;;;;;;;;;;;;;;2092660;28;1965;-89
2021/11/10 02:42:01;;;;;;;;;;;;;;;;;;2093577;28;931;-88
2021/11/10 02:43:03;;;;;;;;;;;;;;;;;;2102311;28;1417;-89
2021/11/10 02:44:05;;;;;;;;;;;;;;;;;;2100448;28;1355;-89
2021/11/10 02:45:09;;;;;;;;;;;;;;;;;;2100850;28;965;-89
2021/11/10 02:46:10;;;;;;;;;;;;;;;;;;2109013;28;1385;-88
2021/11/10 02:47:13;;;;;;;;;;;;;;;;;;2108483;28;1254;-89
2021/11/10 02:48:14;;;;;;;;;;;;;;;;;;2100713;28;1398;-89
2021/11/10 02:49:25;;;;;;;;;;;;;;;;;;2092326;28;1210;-89
2021/11/10 02:50:31;;;;;;;;;;;;;;;;;;2094620;28;1295;-89
2021/11/10 02:51:31;;;;;;;;;;;;;;;;;;2113172;28;1279;-88
2021/11/10 02:52:34;;;;;;;;;;;;;;;;;;2108327;28;1503;-89
2021/11/10 02:53:35;;;;;;;;;;;;;;;;;;2106581;28;1334;-89
2021/11/10 02:54:42;;;;;;;;;;;;;;;;;;2117680;28;1090;-88
2021/11/10 02:55:50;;;;;;;;;;;;;;;;;;2108927;28;1295;-88
2021/11/10 02:56:52;;;;;;;;;;;;;;;;;;2102076;28;1180;-88
2021/11/10 02:57:56;;;;;;;;;;;;;;;;;;2114952;28;2022;-89
2021/11/10 02:58:59;;;;;;;;;;;;;;;;;;2108658;28;1253;-90
2021/11/10 03:00:04;;;;;;;;;;;;;;;;;;2100792;28;1597;-89
2021/11/10 03:01:06;;;;;;;;;;;;;;;;;;2102688;28;1964;-89
2021/11/10 03:02:10;;;;;;;;;;;;;;;;;;2108301;28;1301;-88
2021/11/10 03:03:11;;;;;;;;;;;;;;;;;;2116840;27;2175;-89
2021/11/10 03:04:21;;;;;;;;;;;;;;;;;;2119992;27;1667;-88
2021/11/10 03:05:25;;;;;;;;;;;;;;;;;;2109015;28;1282;-88
2021/11/10 03:06:28;;;;;;;;;;;;;;;;;;2107051;28;2037;-88
2021/11/10 03:07:31;;;;;;;;;;;;;;;;;;2108695;28;1405;-88
2021/11/10 03:08:34;;;;;;;;;;;;;;;;;;2109329;28;1317;-88
2021/11/10 03:09:47;;;;;;;;;;;;;;;;;;2100528;28;1496;-88
2021/11/10 03:10:57;;;;;;;;;;;;;;;;;;2104274;28;1419;-88
2021/11/10 03:11:59;;;;;;;;;;;;;;;;;;2108466;28;1231;-88
2021/11/10 03:13:05;;;;;;;;;;;;;;;;;;2105502;28;1940;-88
2021/11/10 03:14:05;;;;;;;;;;;;;;;;;;2109133;28;1392;-88
2021/11/10 03:15:10;;;;;;;;;;;;;;;;;;2100233;28;1425;-88
2021/11/10 03:16:11;;;;;;;;;;;;;;;;;;2108092;28;1600;-88
2021/11/10 03:17:15;;;;;;;;;;;;;;;;;;2108571;28;856;-88
2021/11/10 03:18:18;;;;;;;;;;;;;;;;;;2116920;28;1391;-88
2021/11/10 03:19:24;;;;;;;;;;;;;;;;;;2101279;28;1428;-88
2021/11/10 03:20:25;;;;;;;;;;;;;;;;;;2109159;28;1244;-89
2021/11/10 03:21:32;;;;;;;;;;;;;;;;;;2117213;28;947;-88
2021/11/10 03:22:33;;;;;;;;;;;;;;;;;;2116395;28;1377;-88
2021/11/10 03:23:35;;;;;;;;;;;;;;;;;;2100191;28;1996;-88
2021/11/10 03:24:36;;;;;;;;;;;;;;;;;;2103019;28;1528;-88
2021/11/10 03:25:40;;;;;;;;;;;;;;;;;;2108611;28;1289;-88
2021/11/10 03:26:42;;;;;;;;;;;;;;;;;;2116199;28;1139;-89
2021/11/10 03:27:45;;;;;;;;;;;;;;;;;;2108306;28;1369;-88
2021/11/10 03:28:47;;;;;;;;;;;;;;;;;;2108891;28;1415;-88
2021/11/10 03:29:51;;;;;;;;;;;;;;;;;;2108712;28;1337;-88
2021/11/10 03:30:55;;;;;;;;;;;;;;;;;;2109279;28;1329;-89
2021/11/10 03:32:01;;;;;;;;;;;;;;;;;;2108165;28;1254;-89
2021/11/10 03:33:04;;;;;;;;;;;;;;;;;;2108910;28;1220;-88
2021/11/10 03:34:08;;;;;;;;;;;;;;;;;;2117454;27;922;-88
2021/11/10 03:35:09;;;;;;;;;;;;;;;;;;2116516;28;1297;-88
2021/11/10 03:36:16;;;;;;;;;;;;;;;;;;2105103;28;2033;-88
2021/11/10 03:37:17;;;;;;;;;;;;;;;;;;2107857;28;1238;-88
2021/11/10 03:38:20;;;;;;;;;;;;;;;;;;2108201;28;1439;-88
2021/11/10 03:39:25;;;;;;;;;;;;;;;;;;2100808;28;1475;-88
2021/11/10 03:40:28;;;;;;;;;;;;;;;;;;2108828;28;864;-88
2021/11/10 03:41:29;;;;;;;;;;;;;;;;;;2108179;28;1964;-88
2021/11/10 03:42:34;;;;;;;;;;;;;;;;;;2108550;28;1430;-88
2021/11/10 03:43:35;;;;;;;;;;;;;;;;;;2100127;28;1315;-88
2021/11/10 03:44:39;;;;;;;;;;;;;;;;;;2100240;28;1307;-88
2021/11/10 03:45:41;;;;;;;;;;;;;;;;;;2100026;28;1349;-88
2021/11/10 03:46:45;;;;;;;;;;;;;;;;;;2108543;28;1444;-89
2021/11/10 03:47:49;;;;;;;;;;;;;;;;;;2100362;28;1173;-89
2021/11/10 03:48:50;;;;;;;;;;;;;;;;;;2108531;28;1336;-89
2021/11/10 03:49:53;;;;;;;;;;;;;;;;;;2108470;28;1687;-89
2021/11/10 03:50:54;;;;;;;;;;;;;;;;;;2109387;28;2076;-89
2021/11/10 03:51:57;;;;;;;;;;;;;;;;;;2116603;28;1468;-89
2021/11/10 03:53:00;;;;;;;;;;;;;;;;;;2105888;28;1425;-88
2021/11/10 03:54:05;;;;;;;;;;;;;;;;;;2100430;28;1291;-89
2021/11/10 03:55:08;;;;;;;;;;;;;;;;;;2100399;28;1270;-88
2021/11/10 03:56:16;;;;;;;;;;;;;;;;;;2101275;28;1172;-88
2021/11/10 03:57:18;;;;;;;;;;;;;;;;;;2116435;28;1564;-88
2021/11/10 03:58:20;;;;;;;;;;;;;;;;;;2117345;28;1202;-89
2021/11/10 03:59:29;;;;;;;;;;;;;;;;;;2108042;28;1460;-89
2021/11/10 04:00:29;;;;;;;;;;;;;;;;;;2099629;28;1189;-90
2021/11/10 04:01:35;;;;;;;;;;;;;;;;;;2106438;28;1964;-90
2021/11/10 04:02:37;;;;;;;;;;;;;;;;;;2108884;28;1230;-91
2021/11/10 04:03:41;;;;;;;;;;;;;;;;;;2100265;28;854;-90
2021/11/10 04:04:47;;;;;;;;;;;;;;;;;;2100588;28;1326;-89
2021/11/10 04:05:51;;;;;;;;;;;;;;;;;;2092981;28;2073;-89
2021/11/10 04:06:54;;;;;;;;;;;;;;;;;;2092297;28;984;-90
2021/11/10 04:07:55;;;;;;;;;;;;;;;;;;2110403;28;1745;-89
2021/11/10 04:09:00;;;;;;;;;;;;;;;;;;2099473;28;1200;-93
2021/11/10 04:10:01;;;;;;;;;;;;;;;;;;2108180;28;1454;-89
2021/11/10 04:11:03;;;;;;;;;;;;;;;;;;2099550;28;1246;-90
2021/11/10 04:12:04;;;;;;;;;;;;;;;;;;2099552;28;1299;-89
2021/11/10 04:13:11;;;;;;;;;;;;;;;;;;2108594;28;1287;-91
2021/11/10 04:14:18;;;;;;;;;;;;;;;;;;2108598;28;1326;-89
2021/11/10 04:15:20;;;;;;;;;;;;;;;;;;2099891;28;1207;-89
2021/11/10 04:16:22;;;;;;;;;;;;;;;;;;2107737;28;1334;-89
2021/11/10 04:17:25;;;;;;;;;;;;;;;;;;2108230;28;1311;-89
2021/11/10 04:18:32;;;;;;;;;;;;;;;;;;2098909;28;1307;-90
2021/11/10 04:19:34;;;;;;;;;;;;;;;;;;2112763;27;1552;-89
2021/11/10 04:20:35;;;;;;;;;;;;;;;;;;2108234;28;1492;-90
2021/11/10 04:21:39;;;;;;;;;;;;;;;;;;2099895;28;1914;-90
2021/11/10 04:22:42;;;;;;;;;;;;;;;;;;2100021;28;1374;-89
2021/11/10 04:23:48;;;;;;;;;;;;;;;;;;2099961;28;1175;-90
2021/11/10 04:24:52;;;;;;;;;;;;;;;;;;2108235;28;1238;-90
2021/11/10 04:25:53;;;;;;;;;;;;;;;;;;2099497;28;1277;-90
2021/11/10 04:26:56;;;;;;;;;;;;;;;;;;2099411;28;1161;-90
2021/11/10 04:27:59;;;;;;;;;;;;;;;;;;2092011;28;1180;-90
2021/11/10 04:29:07;;;;;;;;;;;;;;;;;;2092958;28;1320;-90
2021/11/10 04:30:11;;;;;;;;;;;;;;;;;;2091901;28;1202;-89
2021/11/10 04:31:14;;;;;;;;;;;;;;;;;;2094625;28;1313;-89
2021/11/10 04:32:19;;;;;;;;;;;;;;;;;;2108959;28;1204;-89
2021/11/10 04:33:20;;;;;;;;;;;;;;;;;;2107930;28;1389;-89
2021/11/10 04:34:23;;;;;;;;;;;;;;;;;;2099716;28;1465;-90
2021/11/10 04:35:28;;;;;;;;;;;;;;;;;;2108957;28;1506;-89
2021/11/10 04:36:32;;;;;;;;;;;;;;;;;;2108396;28;1246;-89
2021/11/10 04:37:34;;;;;;;;;;;;;;;;;;2116433;28;1315;-89
2021/11/10 04:38:38;;;;;;;;;;;;;;;;;;2108327;28;1335;-89
2021/11/10 04:39:41;;;;;;;;;;;;;;;;;;2099579;28;1278;-89
2021/11/10 04:40:42;;;;;;;;;;;;;;;;;;2091517;28;1344;-89
2021/11/10 04:41:44;;;;;;;;;;;;;;;;;;2099250;28;1975;-89
2021/11/10 04:42:46;;;;;;;;;;;;;;;;;;2100072;28;1289;-89
2021/11/10 04:43:53;;;;;;;;;;;;;;;;;;2101473;28;1556;-89
2021/11/10 04:45:28;;;;;;;;;;;;;;;;;;2099474;28;1366;-93
2021/11/10 04:46:39;;;;;;;;;;;;;;;;;;2104780;28;1665;-92
2021/11/10 04:47:41;;;;;;;;;;;;;;;;;;2100702;28;1287;-92
2021/11/10 04:48:52;;;;;;;;;;;;;;;;;;2116928;28;933;-93
2021/11/10 04:49:53;;;;;;;;;;;;;;;;;;2115905;28;1159;-87
2021/11/10 04:50:56;;;;;;;;;;;;;;;;;;2108172;28;1320;-87
2021/11/10 04:51:58;;;;;;;;;;;;;;;;;;2116230;28;1412;-86
2021/11/10 04:53:00;;;;;;;;;;;;;;;;;;2108000;28;1301;-87
2021/11/10 04:54:08;;;;;;;;;;;;;;;;;;2116785;28;820;-86
2021/11/10 04:55:11;;;;;;;;;;;;;;;;;;2116147;28;1313;-86
2021/11/10 04:56:13;;;;;;;;;;;;;;;;;;2104066;28;1195;-85
2021/11/10 04:57:14;;;;;;;;;;;;;;;;;;2099730;28;1223;-86
2021/11/10 04:58:17;;;;;;;;;;;;;;;;;;2107999;28;2078;-85
2021/11/10 04:59:19;;;;;;;;;;;;;;;;;;2116122;28;1370;-85
2021/11/10 05:00:20;;;;;;;;;;;;;;;;;;2107664;28;1294;-86
2021/11/10 05:01:27;;;;;;;;;;;;;;;;;;2116258;28;1910;-86
2021/11/10 05:02:34;;;;;;;;;;;;;;;;;;2108890;28;1263;-86
2021/11/10 05:03:36;;;;;;;;;;;;;;;;;;2115902;28;2112;-86
2021/11/10 05:04:38;;;;;;;;;;;;;;;;;;2107819;28;1313;-86
2021/11/10 05:05:40;;;;;;;;;;;;;;;;;;2107435;28;1415;-86
2021/11/10 05:06:41;;;;;;;;;;;;;;;;;;2106972;28;1371;-86
2021/11/10 05:07:47;;;;;;;;;;;;;;;;;;2098950;28;2048;-87
2021/11/10 05:08:48;;;;;;;;;;;;;;;;;;2107733;28;1361;-86
2021/11/10 05:09:54;;;;;;;;;;;;;;;;;;2100292;28;1478;-86
2021/11/10 05:10:56;;;;;;;;;;;;;;;;;;2099501;28;1315;-85
2021/11/10 05:11:57;;;;;;;;;;;;;;;;;;2091098;28;1482;-85
2021/11/10 05:13:01;;;;;;;;;;;;;;;;;;2093287;28;1470;-86
2021/11/10 05:14:02;;;;;;;;;;;;;;;;;;2108568;28;1172;-85
2021/11/10 05:15:04;;;;;;;;;;;;;;;;;;2107553;28;1510;-85
2021/11/10 05:16:06;;;;;;;;;;;;;;;;;;2107811;28;1416;-84
2021/11/10 05:17:08;;;;;;;;;;;;;;;;;;2099323;28;1302;-85
2021/11/10 05:18:10;;;;;;;;;;;;;;;;;;2099412;28;2108;-85
2021/11/10 05:19:12;;;;;;;;;;;;;;;;;;2091195;28;1279;-85
2021/11/10 05:20:13;;;;;;;;;;;;;;;;;;2082686;28;1282;-84
2021/11/10 05:21:19;;;;;;;;;;;;;;;;;;2091844;28;1910;-85
2021/11/10 05:22:20;;;;;;;;;;;;;;;;;;2091146;28;1266;-85
2021/11/10 05:23:23;;;;;;;;;;;;;;;;;;2090577;28;1443;-84
2021/11/10 05:24:25;;;;;;;;;;;;;;;;;;2099046;28;1305;-84
2021/11/10 05:25:27;;;;;;;;;;;;;;;;;;2098942;28;1417;-86
2021/11/10 05:26:28;;;;;;;;;;;;;;;;;;2110332;28;1459;-86
2021/11/10 05:27:31;;;;;;;;;;;;;;;;;;2116355;28;1253;-85
2021/11/10 05:28:33;;;;;;;;;;;;;;;;;;2107477;28;1207;-86
2021/11/10 05:29:36;;;;;;;;;;;;;;;;;;2099153;28;1397;-89
2021/11/10 05:30:37;;;;;;;;;;;;;;;;;;2099683;28;1215;-87
2021/11/10 05:31:39;;;;;;;;;;;;;;;;;;2099188;28;1227;-87
2021/11/10 05:32:41;;;;;;;;;;;;;;;;;;2098604;28;1755;-87
2021/11/10 05:33:45;;;;;;;;;;;;;;;;;;2099625;28;1385;-86
2021/11/10 05:34:46;;;;;;;;;;;;;;;;;;2098667;28;1319;-87
2021/11/10 05:35:50;;;;;;;;;;;;;;;;;;2091259;28;1361;-86
2021/11/10 05:36:51;;;;;;;;;;;;;;;;;;2091656;28;1227;-86
2021/11/10 05:37:56;;;;;;;;;;;;;;;;;;2090615;28;1275;-85
2021/11/10 05:38:57;;;;;;;;;;;;;;;;;;2092011;28;1250;-92
2021/11/10 05:39:59;;;;;;;;;;;;;;;;;;2092469;28;1356;-85
2021/11/10 05:41:01;;;;;;;;;;;;;;;;;;2092145;28;1408;-85
2021/11/10 05:42:02;;;;;;;;;;;;;;;;;;2084410;28;1975;-85
2021/11/10 05:43:06;;;;;;;;;;;;;;;;;;2093140;28;1338;-86
2021/11/10 05:44:07;;;;;;;;;;;;;;;;;;2101146;28;1325;-86
2021/11/10 05:45:09;;;;;;;;;;;;;;;;;;2091622;28;1286;-86
2021/11/10 05:46:11;;;;;;;;;;;;;;;;;;2095794;28;1995;-86
2021/11/10 05:47:12;;;;;;;;;;;;;;;;;;2092104;28;1356;-87
2021/11/10 05:48:15;;;;;;;;;;;;;;;;;;2105724;28;1247;-87
2021/11/10 05:49:18;;;;;;;;;;;;;;;;;;2109150;28;1429;-85
2021/11/10 05:50:20;;;;;;;;;;;;;;;;;;2109692;28;1179;-87
2021/11/10 05:51:21;;;;;;;;;;;;;;;;;;2106022;28;1591;-85
2021/11/10 05:52:23;;;;;;;;;;;;;;;;;;2092788;28;1349;-85
2021/11/10 05:53:25;;;;;;;;;;;;;;;;;;2100062;28;1332;-86
2021/11/10 05:54:25;;;;;;;;;;;;;;;;;;2100509;28;1313;-85
2021/11/10 05:55:29;;;;;;;;;;;;;;;;;;2100932;28;1222;-85
2021/11/10 05:56:33;;;;;;;;;;;;;;;;;;2092572;28;1346;-85
2021/11/10 05:57:38;;;;;;;;;;;;;;;;;;2092690;28;1317;-85
2021/11/10 05:58:39;;;;;;;;;;;;;;;;;;2093599;28;1275;-85
2021/11/10 05:59:41;;;;;;;;;;;;;;;;;;2100965;28;1408;-85
2021/11/10 06:00:41;;;;;;;;;;;;;;;;;;2100736;28;1362;-85
2021/11/10 06:01:46;;;;;;;;;;;;;;;;;;2092171;28;2043;-87
2021/11/10 06:02:57;;;;;;;;;;;;;;;;;;2101118;28;1265;-87
2021/11/10 06:07:49;;;;;;;;;;;;;;;;;;2084450;28;902;-88
2021/11/10 06:17:45;;;;;;;;;;;;;;;;;;2092395;28;1165;-87
2021/11/10 06:33:00;;;;;;;;;;;;;;;;;;2028296;29;1052;-88
2021/11/10 07:10:07;;;;;;;;;;;;;;;;;;;;;
2021/11/10 07:30:54;;;;;;;;;;;;;;;;;;2059503;28;616;-89
2021/11/10 07:31:56;;;;;;;;;;;;;;;;;;2073288;28;1379;-88
2021/11/10 07:37:11;;;;;;;;;;;;;;;;;;2083764;28;619;-88
2021/11/10 07:38:19;;;;;;;;;;;;;;;;;;2079893;28;1279;-87
2021/11/10 07:39:20;;;;;;;;;;;;;;;;;;2083894;28;1279;-85
2021/11/10 07:40:24;;;;;;;;;;;;;;;;;;2083702;28;1261;-88
2021/11/10 07:41:28;;;;;;;;;;;;;;;;;;2099309;28;1286;-88
2021/11/10 07:42:29;;;;;;;;;;;;;;;;;;2109049;28;1913;-87
2021/11/10 07:43:32;;;;;;;;;;;;;;;;;;2108581;28;1309;-88
2021/11/10 07:44:34;;;;;;;;;;;;;;;;;;2100266;28;1402;-87
2021/11/10 07:45:41;;;;;;;;;;;;;;;;;;2091974;28;1294;-88
2021/11/10 07:46:49;;;;;;;;;;;;;;;;;;2101286;28;1207;-87
2021/11/10 07:47:53;;;;;;;;;;;;;;;;;;2115694;28;1256;-88
2021/11/10 07:48:55;;;;;;;;;;;;;;;;;;2109083;28;840;-88
2021/11/10 07:49:56;;;;;;;;;;;;;;;;;;2108765;28;1427;-88
2021/11/10 07:50:58;;;;;;;;;;;;;;;;;;2100035;28;1397;-95
2021/11/10 07:52:00;;;;;;;;;;;;;;;;;;2108653;28;1252;-87
2021/11/10 07:53:03;;;;;;;;;;;;;;;;;;2116890;28;1226;-88
2021/11/10 07:54:04;;;;;;;;;;;;;;;;;;2108763;28;816;-87
2021/11/10 07:55:07;;;;;;;;;;;;;;;;;;2108087;28;1303;-88
2021/11/10 07:56:09;;;;;;;;;;;;;;;;;;2100603;28;1345;-88
2021/11/10 07:57:10;;;;;;;;;;;;;;;;;;2099904;28;1408;-87
2021/11/10 07:58:12;;;;;;;;;;;;;;;;;;2108755;28;1316;-90
2021/11/10 07:59:12;;;;;;;;;;;;;;;;;;2116207;28;1215;-86
2021/11/10 08:00:16;;;;;;;;;;;;;;;;;;2108587;28;849;-88
2021/11/10 08:01:16;;;;;;;;;;;;;;;;;;2107539;28;1262;-87
2021/11/10 08:02:20;;;;;;;;;;;;;;;;;;2099345;28;1978;-87
2021/11/10 08:03:20;;;;;;;;;;;;;;;;;;2108783;28;1376;-87
2021/11/10 08:04:22;;;;;;;;;;;;;;;;;;2108525;28;1463;-87
2021/11/10 08:05:24;;;;;;;;;;;;;;;;;;2108166;28;1175;-87
2021/11/10 08:06:25;;;;;;;;;;;;;;;;;;2107791;28;1231;-87
2021/11/10 08:07:28;;;;;;;;;;;;;;;;;;2108407;28;1271;-87
2021/11/10 08:08:32;;;;;;;;;;;;;;;;;;2108093;28;1360;-87
2021/11/10 08:09:33;;;;;;;;;;;;;;;;;;2108114;28;1495;-88
2021/11/10 08:10:35;;;;;;;;;;;;;;;;;;2108259;28;1220;-87
2021/11/10 08:11:38;;;;;;;;;;;;;;;;;;2109022;28;876;-87
2021/11/10 08:12:41;;;;;;;;;;;;;;;;;;2107655;28;2003;-89
2021/11/10 08:13:43;;;;;;;;;;;;;;;;;;2099595;28;1201;-88
2021/11/10 08:14:44;;;;;;;;;;;;;;;;;;2099159;28;1599;-88
2021/11/10 08:15:46;;;;;;;;;;;;;;;;;;2099852;28;1389;-87
2021/11/10 08:16:48;;;;;;;;;;;;;;;;;;2108307;28;1337;-88
2021/11/10 08:17:48;;;;;;;;;;;;;;;;;;2107664;28;1255;-88
2021/11/10 08:18:50;;;;;;;;;;;;;;;;;;2107866;28;1343;-88
2021/11/10 08:19:52;;;;;;;;;;;;;;;;;;2099992;28;1237;-88
2021/11/10 08:20:54;;;;;;;;;;;;;;;;;;2099044;28;2117;-86
2021/11/10 08:21:56;;;;;;;;;;;;;;;;;;2093639;28;1326;-87
2021/11/10 08:22:58;;;;;;;;;;;;;;;;;;2099423;28;2044;-86
2021/11/10 08:24:04;;;;;;;;;;;;;;;;;;2099648;28;1227;-88
2021/11/10 08:25:07;;;;;;;;;;;;;;;;;;2106176;28;1784;-87
2021/11/10 08:26:08;;;;;;;;;;;;;;;;;;2107499;28;1433;-86
2021/11/10 08:27:11;;;;;;;;;;;;;;;;;;2099960;28;1215;-87
2021/11/10 08:28:12;;;;;;;;;;;;;;;;;;2103719;28;2016;-87
2021/11/10 08:29:16;;;;;;;;;;;;;;;;;;2107542;28;1263;-86
2021/11/10 08:30:19;;;;;;;;;;;;;;;;;;2108556;28;1198;-86
2021/11/10 08:31:21;;;;;;;;;;;;;;;;;;2103300;28;1290;-86
2021/11/10 08:32:23;;;;;;;;;;;;;;;;;;2099689;28;1345;-88
2021/11/10 08:33:25;;;;;;;;;;;;;;;;;;2099380;28;1482;-87
2021/11/10 08:34:27;;;;;;;;;;;;;;;;;;2099485;28;1269;-87
2021/11/10 08:35:29;;;;;;;;;;;;;;;;;;2107370;28;1335;-88
2021/11/10 08:36:30;;;;;;;;;;;;;;;;;;2099514;28;1441;-88
2021/11/10 08:37:32;;;;;;;;;;;;;;;;;;2099882;28;1234;-87
2021/11/10 08:38:34;;;;;;;;;;;;;;;;;;2099732;28;1182;-87
2021/11/10 08:39:37;;;;;;;;;;;;;;;;;;2101166;28;1708;-87
2021/11/10 08:40:38;;;;;;;;;;;;;;;;;;2114411;28;1578;-87
2021/11/10 08:41:47;;;;;;;;;;;;;;;;;;2117722;28;2023;-90
2021/11/10 08:43:25;;;;;;;;;;;;;;;;;;2113791;27;1605;-89
2021/11/10 08:44:27;;;;;;;;;;;;;;;;;;2116257;28;1354;-89
2021/11/10 08:45:33;;;;;;;;;;;;;;;;;;2116028;28;1187;-89
2021/11/10 08:46:44;;;;;;;;;;;;;;;;;;2092875;28;1194;-89
2021/11/10 08:47:47;;;;;;;;;;;;;;;;;;2099824;28;2018;-88
2021/11/10 08:48:49;;;;;;;;;;;;;;;;;;2099735;28;1342;-89
2021/11/10 08:49:52;;;;;;;;;;;;;;;;;;2108064;28;1301;-88
2021/11/10 08:50:55;;;;;;;;;;;;;;;;;;2099344;28;1178;-89
2021/11/10 08:51:57;;;;;;;;;;;;;;;;;;2099135;28;1268;-89
2021/11/10 08:53:08;;;;;;;;;;;;;;;;;;2092334;28;1219;-88
2021/11/10 08:54:25;;;;;;;;;;;;;;;;;;2094490;28;1422;-88
2021/11/10 08:59:24;;;;;;;;;;;;;;;;;;2107066;28;853;-88
2021/11/10 09:00:30;;;;;;;;;;;;;;;;;;2107518;28;1275;-88
2021/11/10 09:01:39;;;;;;;;;;;;;;;;;;2108317;28;1195;-88
2021/11/10 09:02:42;;;;;;;;;;;;;;;;;;2100937;28;1911;-89
2021/11/10 09:03:52;;;;;;;;;;;;;;;;;;2116458;28;1293;-88
2021/11/10 09:04:53;;;;;;;;;;;;;;;;;;2109380;28;1281;-88
2021/11/10 09:05:56;;;;;;;;;;;;;;;;;;2106577;28;2041;-88